Wetterdaten: aktuell Mittwoch, 23.01.2019 09:30
Datum Zeit Temp. A. Feuchte A. Luftdruck Regen Wind Richtung Richtung Windben
23.01.2019 09:30 -4,4 C 65 % 996,8 hPa 0,4 mm 0,2 km/h W-NW 292 0,0 km/h
23.01.2019 08:30 -5,0 C 65 % 997,1 hPa 0,2 mm 0,4 km/h W 270 0,0 km/h
23.01.2019 07:30 -5,2 C 65 % 996,9 hPa 0,6 mm 0,0 km/h W-SW 247 0,0 km/h
23.01.2019 06:30 -5,3 C 64 % 997,3 hPa 1,0 mm 0,8 km/h W-SW 247 2,1 km/h
23.01.2019 05:30 -5,2 C 64 % 997,1 hPa 0,0 mm 0,2 km/h W-SW 247 0,0 km/h
23.01.2019 04:30 -5,3 C 65 % 997,6 hPa 0,0 mm 0,2 km/h W-SW 247 2,5 km/h
23.01.2019 03:30 -5,3 C 64 % 998,2 hPa 0,0 mm 2,1 km/h W 270 3,1 km/h
23.01.2019 02:30 -5,4 C 64 % 999,1 hPa 0,0 mm 1,9 km/h W 270 0,0 km/h
23.01.2019 01:30 -5,4 C 64 % 999,5 hPa 0,0 mm 2,3 km/h N-NW 337 1,9 km/h
23.01.2019 00:30 -5,4 C 64 % 1000,1 hPa 0,0 mm 4,2 km/h W-SW 247 6,2 km/h
22.01.2019 23:30 -5,3 C 64 % 1001,4 hPa 0,0 mm 1,7 km/h S 180 0,0 km/h
22.01.2019 22:30 -5,2 C 65 % 1002,1 hPa 0,0 mm 2,9 km/h NW 315 4,1 km/h
22.01.2019 21:30 -5,1 C 59 % 1002,8 hPa 0,0 mm 0,0 km/h NO 45 0,0 km/h
22.01.2019 20:30 -4,8 C 59 % 1003,4 hPa 0,0 mm 0,0 km/h NW 315 0,0 km/h
22.01.2019 19:30 -4,2 C 58 % 1003,9 hPa 0,0 mm 1,0 km/h W-SW 247 4,4 km/h
22.01.2019 18:30 -3,8 C 57 % 1004,2 hPa 0,0 mm 2,9 km/h W-SW 247 4,6 km/h
22.01.2019 17:30 -3,1 C 55 % 1004,4 hPa 0,0 mm 1,5 km/h NW 315 0,0 km/h
22.01.2019 16:30 -2,3 C 54 % 1004,9 hPa 0,0 mm 2,7 km/h NW 315 0,0 km/h
22.01.2019 15:30 -0,7 C 52 % 1005,2 hPa 0,0 mm 4,8 km/h W-NW 292 2,7 km/h
22.01.2019 14:30 1,2 C 48 % 1005,9 hPa 0,0 mm 3,9 km/h NW 315 2,7 km/h
22.01.2019 13:30 1,3 C 52 % 1006,8 hPa 0,0 mm 2,7 km/h W-SW 247 7,0 km/h
22.01.2019 12:30 -0,8 C 56 % 1008,2 hPa 0,0 mm 3,7 km/h O-NO 67 2,1 km/h
22.01.2019 11:30 -1,7 C 58 % 1009,0 hPa 0,0 mm 2,1 km/h N-NW 337 3,5 km/h
22.01.2019 10:30 -2,3 C 61 % 1009,4 hPa 0,0 mm 1,0 km/h S 180 3,7 km/h
22.01.2019 10:00 -3,0 C 62 % 1009,9 hPa 0,0 mm 1,0 km/h O-NO 67 2,5 km/h
_ Min-Zeit 01:40 14:20 09:25 - 17:45 - - 10:05
Minimum _ -5,5 C 48 % 996,8 hPa - 0,0 km/h - - 0,0 km/h
_ Max-Zeit 14:10 22:10 10:00 05:35 15:20 - - 15:25
Maximum _ 1,7 C 65 % 1009,9 hPa 0,2 mm 5,4 km/h
NW
- - 9,7 km/h
NW
Durchschnitt _ -3,6 C 60 % 1002,9 hPa #2,2 mm 1,5 km/h W-SW - 2,0 km/h